Time;durP1;ratioP1;P1;durP2;ratioP2;P2;SDS_P1;SDS_P2;PMS_P1;PMS_P2;Temp;Humidity;BMP_temperature;BMP_pressure;BME280_temperature;BME280_humidity;BME280_pressure;Samples;Min_cycle;Max_cycle;Signal;HPM_P1;HPM_P2
2022/02/04 00:08:57;;;;;;;14.20;7.88;;;;;;;;;;4976426;28;20154;-76
2022/02/04 00:25:08;;;;;;;12.82;6.70;;;;;;;;;;4977569;28;20038;-75
2022/02/04 00:27:35;;;;;;;16.02;7.47;;;;;;;;;;4977107;28;20130;-76
2022/02/04 00:30:11;;;;;;;14.38;7.47;;;;;;;;;;4977903;28;20134;-75
2022/02/04 00:32:40;;;;;;;12.25;6.82;;;;;;;;;;4976189;28;20504;-76
2022/02/04 00:35:37;;;;;;;16.10;6.75;;;;;;;;;;4976918;28;20022;-75
2022/02/04 00:40:45;;;;;;;13.80;7.55;;;;;;;;;;4976653;28;20046;-75
2022/02/04 00:43:14;;;;;;;10.88;6.03;;;;;;;;;;4978951;28;20027;-75
2022/02/04 00:48:32;;;;;;;12.05;6.32;;;;;;;;;;4979914;28;20026;-75
2022/02/04 00:51:06;;;;;;;15.20;6.25;;;;;;;;;;4977536;28;20580;-75
2022/02/04 00:53:42;;;;;;;11.00;5.55;;;;;;;;;;4978921;28;20023;-75
2022/02/04 01:26:18;;;;;;;10.13;4.88;;;;;;;;;;4939382;29;20086;-76
2022/02/04 01:28:46;;;;;;;16.33;6.55;;;;;;;;;;4939996;29;20106;-75
2022/02/04 01:31:15;;;;;;;17.75;6.43;;;;;;;;;;4923791;29;20175;-76
2022/02/04 01:33:43;;;;;;;21.10;6.43;;;;;;;;;;4937712;29;20035;-76
2022/02/04 01:36:10;;;;;;;18.85;5.47;;;;;;;;;;4938128;29;20106;-75
2022/02/04 01:38:36;;;;;;;14.48;5.30;;;;;;;;;;4941921;29;20118;-75
2022/02/04 01:41:04;;;;;;;15.55;5.32;;;;;;;;;;4940327;29;20038;-75
2022/02/04 01:43:30;;;;;;;10.32;4.20;;;;;;;;;;4957542;28;20045;-75
2022/02/04 01:45:57;;;;;;;12.25;4.60;;;;;;;;;;4964251;28;20039;-76
2022/02/04 01:48:28;;;;;;;12.82;4.78;;;;;;;;;;4979912;28;20070;-75
2022/02/04 01:50:54;;;;;;;9.98;4.65;;;;;;;;;;4980362;28;20015;-75
2022/02/04 01:53:28;;;;;;;11.93;5.30;;;;;;;;;;4979280;28;20123;-77
2022/02/04 01:55:55;;;;;;;8.82;4.85;;;;;;;;;;4980553;28;20050;-75
2022/02/04 01:58:21;;;;;;;11.38;4.63;;;;;;;;;;4978692;28;20563;-74
2022/02/04 02:00:47;;;;;;;9.80;4.30;;;;;;;;;;4978994;28;20093;-74
2022/02/04 02:03:14;;;;;;;9.40;4.03;;;;;;;;;;4983996;28;20022;-77
2022/02/04 02:05:40;;;;;;;12.35;5.05;;;;;;;;;;4982686;28;20014;-75
2022/02/04 02:08:06;;;;;;;11.82;4.25;;;;;;;;;;4978779;28;20511;-75
2022/02/04 02:10:35;;;;;;;13.35;3.95;;;;;;;;;;4979479;28;20026;-76
2022/02/04 02:15:40;;;;;;;10.85;4.47;;;;;;;;;;4979852;28;20030;-75
2022/02/04 02:35:23;;;;;;;25.02;11.77;;;;;;;;;;4980751;28;20120;-76
2022/02/04 02:54:12;;;;;;;9.50;4.38;;;;;;;;;;4901270;29;20033;-75
2022/02/04 02:59:24;;;;;;;9.07;3.67;;;;;;;;;;4900047;29;20036;-75
2022/02/04 03:01:51;;;;;;;5.82;3.40;;;;;;;;;;4900368;29;20029;-76
2022/02/04 03:04:17;;;;;;;8.68;3.50;;;;;;;;;;4902161;29;20029;-76
2022/02/04 03:06:47;;;;;;;9.10;3.22;;;;;;;;;;4902333;29;20563;-75
2022/02/04 03:09:13;;;;;;;5.25;2.83;;;;;;;;;;4900050;29;20028;-76
2022/02/04 03:11:40;;;;;;;9.18;3.45;;;;;;;;;;4902842;29;20151;-76
2022/02/04 03:14:08;;;;;;;9.95;3.50;;;;;;;;;;4900032;29;20037;-75
2022/02/04 03:16:37;;;;;;;9.70;3.70;;;;;;;;;;4900705;29;20076;-76
2022/02/04 03:19:06;;;;;;;7.38;3.40;;;;;;;;;;4926317;28;20026;-75
2022/02/04 03:21:37;;;;;;;9.65;3.35;;;;;;;;;;4978026;28;20029;-76
2022/02/04 03:24:08;;;;;;;7.03;2.95;;;;;;;;;;4977979;28;20030;-76
2022/02/04 03:29:12;;;;;;;5.82;2.67;;;;;;;;;;4980537;28;20023;-75
2022/02/04 03:31:43;;;;;;;6.13;3.10;;;;;;;;;;4978129;28;20043;-76
2022/02/04 03:34:09;;;;;;;7.90;3.55;;;;;;;;;;4980639;28;20376;-75
2022/02/04 03:36:41;;;;;;;6.20;3.00;;;;;;;;;;4978144;28;20408;-76
2022/02/04 03:39:07;;;;;;;7.32;2.67;;;;;;;;;;4977468;28;20038;-75
2022/02/04 03:41:37;;;;;;;5.55;2.72;;;;;;;;;;4980562;28;20030;-75
2022/02/04 03:44:04;;;;;;;6.53;2.90;;;;;;;;;;4978352;28;20026;-76
2022/02/04 03:46:30;;;;;;;9.77;3.20;;;;;;;;;;4959412;29;20047;-75
2022/02/04 03:48:57;;;;;;;17.65;3.92;;;;;;;;;;4940821;29;20415;-75
2022/02/04 03:51:23;;;;;;;8.93;3.53;;;;;;;;;;4958271;29;20037;-75
2022/02/04 03:53:49;;;;;;;13.05;4.32;;;;;;;;;;4960033;29;20102;-77
2022/02/04 03:56:15;;;;;;;10.75;3.50;;;;;;;;;;4958991;29;20035;-76
2022/02/04 03:58:42;;;;;;;7.80;2.97;;;;;;;;;;4957433;29;20067;-76
2022/02/04 04:01:08;;;;;;;7.07;2.70;;;;;;;;;;4977005;28;20554;-76
2022/02/04 04:03:35;;;;;;;5.80;2.60;;;;;;;;;;4976974;28;20030;-76
2022/02/04 04:06:01;;;;;;;4.90;2.60;;;;;;;;;;4977024;28;20062;-75
2022/02/04 04:08:29;;;;;;;12.48;4.97;;;;;;;;;;4976003;28;20085;-75
2022/02/04 04:10:58;;;;;;;8.45;3.50;;;;;;;;;;4960134;28;20536;-75
2022/02/04 04:13:25;;;;;;;6.72;3.17;;;;;;;;;;4979225;28;20039;-75
2022/02/04 04:15:51;;;;;;;7.47;3.88;;;;;;;;;;4976561;28;20419;-75
2022/02/04 04:18:17;;;;;;;9.77;5.00;;;;;;;;;;4977945;28;20105;-75
2022/02/04 04:20:45;;;;;;;9.35;4.38;;;;;;;;;;4978451;28;20110;-75
2022/02/04 04:23:11;;;;;;;33.58;15.55;;;;;;;;;;4981394;28;20065;-76
2022/02/04 04:25:38;;;;;;;28.67;13.70;;;;;;;;;;4981171;28;20035;-76
2022/02/04 04:28:04;;;;;;;11.48;6.22;;;;;;;;;;4976822;28;20065;-75
2022/02/04 04:30:30;;;;;;;23.80;11.25;;;;;;;;;;4977406;28;20029;-75
2022/02/04 04:32:59;;;;;;;21.05;10.60;;;;;;;;;;4977642;28;20567;-76
2022/02/04 04:35:27;;;;;;;44.65;22.10;;;;;;;;;;4975132;28;20071;-75
2022/02/04 05:29:40;;;;;;;30.88;8.88;;;;;;;;;;4982076;28;20166;-75
2022/02/04 05:32:06;;;;;;;16.55;6.03;;;;;;;;;;4986849;28;20027;-75
2022/02/04 05:34:33;;;;;;;16.08;5.40;;;;;;;;;;4981847;28;20038;-75
2022/02/04 05:37:03;;;;;;;15.73;4.40;;;;;;;;;;4981601;28;20074;-75
2022/02/04 05:39:47;;;;;;;15.13;4.82;;;;;;;;;;4972149;28;20034;-76
2022/02/04 05:42:20;;;;;;;;;;;;;;;;;;4977082;28;20042;-76
2022/02/04 05:44:53;;;;;;;32.03;10.43;;;;;;;;;;4972288;28;19964;-76
2022/02/04 05:47:20;;;;;;;;;;;;;;;;;;4963880;28;20492;-76
2022/02/04 05:50:02;;;;;;;17.88;6.85;;;;;;;;;;4959797;28;19906;-76
2022/02/04 05:52:32;;;;;;;31.27;6.70;;;;;;;;;;4966315;28;20043;-75
2022/02/04 05:58:17;;;;;;;22.20;7.50;;;;;;;;;;4939686;29;20091;-75
2022/02/04 06:00:58;;;;;;;10.07;5.65;;;;;;;;;;4936667;29;20035;-77
2022/02/04 06:11:57;;;;;;;12.48;5.20;;;;;;;;;;4939921;29;20062;-76
2022/02/04 06:22:26;;;;;;;17.25;5.53;;;;;;;;;;4921758;29;20122;-76
2022/02/04 06:24:56;;;;;;;33.90;6.10;;;;;;;;;;4926194;29;20040;-78
2022/02/04 06:27:43;;;;;;;36.28;11.68;;;;;;;;;;4938935;28;20040;-76
2022/02/04 06:30:12;;;;;;;20.30;7.13;;;;;;;;;;4922735;29;20040;-76
2022/02/04 06:32:40;;;;;;;34.80;7.65;;;;;;;;;;4909819;29;20037;-74
2022/02/04 06:35:07;;;;;;;16.45;5.70;;;;;;;;;;4898455;29;20052;-77
2022/02/04 06:37:33;;;;;;;14.40;6.05;;;;;;;;;;4893905;29;20205;-79
2022/02/04 06:39:59;;;;;;;13.52;4.30;;;;;;;;;;4895624;29;20037;-78
2022/02/04 06:42:26;;;;;;;25.35;5.80;;;;;;;;;;4895504;29;20561;-77
2022/02/04 06:44:52;;;;;;;27.15;4.60;;;;;;;;;;4893277;29;20198;-76
2022/02/04 06:47:21;;;;;;;19.40;4.95;;;;;;;;;;5054809;23;20193;-76
2022/02/04 06:49:50;;;;;;;13.05;5.07;;;;;;;;;;4998668;28;20380;-76
2022/02/04 06:52:16;;;;;;;14.35;5.63;;;;;;;;;;5001884;28;20122;-77
2022/02/04 06:55:01;;;;;;;40.60;7.05;;;;;;;;;;5007040;28;20030;-78
2022/02/04 06:57:28;;;;;;;33.40;6.13;;;;;;;;;;4967713;28;20052;-77
2022/02/04 06:59:59;;;;;;;36.20;7.10;;;;;;;;;;5003074;28;20018;-77
2022/02/04 07:02:27;;;;;;;9.57;4.13;;;;;;;;;;4986666;28;20026;-75
2022/02/04 07:04:53;;;;;;;16.27;6.07;;;;;;;;;;5005118;28;20062;-76
2022/02/04 07:07:20;;;;;;;17.88;7.78;;;;;;;;;;4985545;28;20094;-77
2022/02/04 07:09:56;;;;;;;14.48;6.80;;;;;;;;;;5003706;28;20079;-76
2022/02/04 07:12:35;;;;;;;25.05;7.53;;;;;;;;;;4981458;28;20022;-75
2022/02/04 07:15:27;;;;;;;16.35;5.68;;;;;;;;;;5001447;28;20030;-74
2022/02/04 07:20:19;;;;;;;21.85;7.10;;;;;;;;;;5007953;28;20030;-74
2022/02/04 07:22:47;;;;;;;26.60;10.35;;;;;;;;;;5005772;28;20066;-74
2022/02/04 07:25:16;;;;;;;32.40;9.07;;;;;;;;;;5004163;28;20033;-74
2022/02/04 07:27:43;;;;;;;28.83;8.00;;;;;;;;;;4986919;28;20075;-74
2022/02/04 07:30:11;;;;;;;33.28;10.27;;;;;;;;;;5006880;28;20045;-74
2022/02/04 07:32:54;;;;;;;16.83;6.43;;;;;;;;;;4977502;28;20031;-75
2022/02/04 07:41:08;;;;;;;17.85;5.82;;;;;;;;;;4926627;29;20092;-74
2022/02/04 07:43:36;;;;;;;26.08;8.10;;;;;;;;;;4931280;29;20083;-75
2022/02/04 07:46:03;;;;;;;32.47;7.32;;;;;;;;;;4930828;29;20044;-75
2022/02/04 07:48:30;;;;;;;21.52;6.40;;;;;;;;;;4935203;29;20032;-75
2022/02/04 07:50:56;;;;;;;20.55;6.60;;;;;;;;;;4929748;29;20110;-76
2022/02/04 07:53:26;;;;;;;23.40;5.30;;;;;;;;;;4925828;29;20137;-75
2022/02/04 07:55:55;;;;;;;14.38;5.18;;;;;;;;;;4926340;29;20123;-76
2022/02/04 07:58:27;;;;;;;15.80;5.70;;;;;;;;;;4926467;29;20058;-74
2022/02/04 08:00:56;;;;;;;27.85;7.47;;;;;;;;;;4930102;29;20065;-74
2022/02/04 08:03:43;;;;;;;25.40;7.38;;;;;;;;;;4933052;29;20052;-74
2022/02/04 08:06:14;;;;;;;20.27;7.00;;;;;;;;;;4931869;29;20110;-76
2022/02/04 08:08:55;;;;;;;15.07;6.43;;;;;;;;;;4928601;29;20044;-75
2022/02/04 08:11:49;;;;;;;12.00;5.60;;;;;;;;;;4924191;29;20064;-76
2022/02/04 08:22:10;;;;;;;38.17;14.80;;;;;;;;;;4987758;28;20058;-77
2022/02/04 08:31:26;;;;;;;20.63;7.28;;;;;;;;;;4887164;29;20048;-74
2022/02/04 08:53:04;;;;;;;22.25;12.60;;;;;;;;;;4889593;29;20048;-76
2022/02/04 08:55:44;;;;;;;23.13;9.48;;;;;;;;;;4884995;29;20069;-77
2022/02/04 09:00:49;;;;;;;32.15;18.80;;;;;;;;;;4887589;29;20029;-76
2022/02/04 09:03:27;;;;;;;15.75;7.00;;;;;;;;;;4887081;29;20130;-75
2022/02/04 09:06:07;;;;;;;14.90;6.93;;;;;;;;;;4914093;28;20034;-75
2022/02/04 09:08:59;;;;;;;41.95;11.88;;;;;;;;;;4986444;28;20018;-75
2022/02/04 09:25:05;;;;;;;15.02;6.70;;;;;;;;;;4987146;28;20143;-74
2022/02/04 09:27:32;;;;;;;22.63;8.15;;;;;;;;;;4981918;28;20035;-74
2022/02/04 09:29:58;;;;;;;18.67;7.53;;;;;;;;;;4989075;28;20023;-75
2022/02/04 09:32:24;;;;;;;17.90;6.25;;;;;;;;;;4985222;28;20019;-76
2022/02/04 09:34:50;;;;;;;26.42;6.70;;;;;;;;;;4991510;28;20069;-75
2022/02/04 09:37:21;;;;;;;24.48;7.50;;;;;;;;;;4986304;28;20061;-76
2022/02/04 09:39:47;;;;;;;16.52;4.80;;;;;;;;;;4987046;28;20388;-74
2022/02/04 09:42:15;;;;;;;36.75;7.70;;;;;;;;;;5004611;28;20050;-76
2022/02/04 09:44:42;;;;;;;19.30;6.88;;;;;;;;;;4991503;28;20062;-76
2022/02/04 09:47:08;;;;;;;16.73;6.20;;;;;;;;;;4988602;28;20082;-75
2022/02/04 09:49:42;;;;;;;22.23;9.48;;;;;;;;;;4989269;28;20031;-75
2022/02/04 10:07:03;;;;;;;27.57;9.57;;;;;;;;;;4865693;29;21564;-76
2022/02/04 10:17:12;;;;;;;26.40;8.93;;;;;;;;;;4881503;29;20060;-76
2022/02/04 10:22:16;;;;;;;15.00;6.88;;;;;;;;;;4888886;29;20056;-77
2022/02/04 10:24:42;;;;;;;18.98;7.53;;;;;;;;;;4892149;29;20037;-77
2022/02/04 10:27:09;;;;;;;33.15;7.20;;;;;;;;;;4873074;29;20029;-76
2022/02/04 10:29:35;;;;;;;23.15;7.03;;;;;;;;;;4879107;29;20025;-75
2022/02/04 10:32:01;;;;;;;16.55;6.63;;;;;;;;;;4918172;28;20130;-76
2022/02/04 10:34:29;;;;;;;21.13;7.22;;;;;;;;;;4982901;28;20503;-73
2022/02/04 10:37:28;;;;;;;30.90;8.27;;;;;;;;;;4989977;28;20019;-75
2022/02/04 10:40:09;;;;;;;26.08;8.88;;;;;;;;;;4988925;28;20035;-75
2022/02/04 10:45:48;;;;;;;27.98;9.57;;;;;;;;;;4971457;28;20038;-76
2022/02/04 11:35:28;;;;;;;13.60;4.90;;;;;;;;;;4987255;28;20034;-77
2022/02/04 11:52:50;;;;;;;11.40;4.93;;;;;;;;;;4880745;29;20065;-79
2022/02/04 11:55:23;;;;;;;12.70;5.20;;;;;;;;;;4883443;29;20069;-75
2022/02/04 11:57:57;;;;;;;24.40;5.30;;;;;;;;;;4885488;29;20061;-76
2022/02/04 12:00:28;;;;;;;23.67;6.70;;;;;;;;;;4883505;29;20045;-76
2022/02/04 12:02:55;;;;;;;17.98;5.85;;;;;;;;;;4881398;29;20041;-77
2022/02/04 12:05:21;;;;;;;15.32;6.43;;;;;;;;;;4882333;29;20084;-75
2022/02/04 12:07:55;;;;;;;16.33;6.68;;;;;;;;;;4884044;29;20037;-77
2022/02/04 12:10:34;;;;;;;18.08;6.90;;;;;;;;;;4888067;29;20060;-75
2022/02/04 12:13:09;;;;;;;19.75;6.38;;;;;;;;;;4878163;29;20029;-75
2022/02/04 12:15:43;;;;;;;16.23;6.93;;;;;;;;;;4882236;29;20133;-76
2022/02/04 12:18:10;;;;;;;22.65;7.88;;;;;;;;;;4884752;29;20543;-76
2022/02/04 12:20:46;;;;;;;27.30;8.30;;;;;;;;;;4870993;29;20546;-77
2022/02/04 12:23:29;;;;;;;27.55;10.10;;;;;;;;;;4878984;29;20045;-75
2022/02/04 12:26:16;;;;;;;20.08;9.75;;;;;;;;;;4883009;29;20064;-76
2022/02/04 12:29:05;;;;;;;25.33;11.93;;;;;;;;;;4922070;28;20089;-75
2022/02/04 12:31:32;;;;;;;28.80;10.68;;;;;;;;;;4975874;28;20480;-75
2022/02/04 12:34:03;;;;;;;23.40;12.18;;;;;;;;;;4985936;28;20031;-77
2022/02/04 12:36:29;;;;;;;44.33;23.65;;;;;;;;;;4986675;28;20118;-74
2022/02/04 12:38:57;;;;;;;41.47;16.67;;;;;;;;;;4985120;28;20039;-74
2022/02/04 12:41:34;;;;;;;25.35;10.45;;;;;;;;;;4984703;28;20380;-73
2022/02/04 12:44:01;;;;;;;29.38;11.13;;;;;;;;;;4979110;28;20030;-73
2022/02/04 12:46:28;;;;;;;20.83;9.10;;;;;;;;;;4978279;28;20453;-76
2022/02/04 12:49:05;;;;;;;25.55;11.32;;;;;;;;;;4989932;28;20492;-76
2022/02/04 12:54:44;;;;;;;28.63;10.68;;;;;;;;;;4900214;29;20095;-76
2022/02/04 13:00:04;;;;;;;36.17;18.73;;;;;;;;;;4899198;29;20129;-78
2022/02/04 13:10:31;;;;;;;30.20;17.35;;;;;;;;;;4906723;29;20032;-76
2022/02/04 13:13:04;;;;;;;33.22;16.40;;;;;;;;;;4905865;29;20056;-78
2022/02/04 13:15:33;;;;;;;22.35;9.25;;;;;;;;;;4911995;29;20029;-77
2022/02/04 13:17:59;;;;;;;24.90;13.05;;;;;;;;;;4907339;29;20108;-77
2022/02/04 13:20:26;;;;;;;32.20;17.05;;;;;;;;;;4899323;29;20053;-77
2022/02/04 13:22:58;;;;;;;20.05;12.20;;;;;;;;;;4900516;29;20041;-78
2022/02/04 13:25:27;;;;;;;16.48;8.60;;;;;;;;;;4899763;29;20022;-76
2022/02/04 13:28:04;;;;;;;29.42;15.18;;;;;;;;;;4916018;29;20037;-79
2022/02/04 13:30:38;;;;;;;17.70;7.38;;;;;;;;;;4961768;28;20038;-75
2022/02/04 13:33:14;;;;;;;19.52;7.95;;;;;;;;;;4984215;28;20030;-76
2022/02/04 13:35:42;;;;;;;17.63;7.20;;;;;;;;;;4983251;28;20052;-75
2022/02/04 13:38:24;;;;;;;13.35;5.97;;;;;;;;;;4992440;28;20035;-76
2022/02/04 13:46:29;;;;;;;21.55;6.45;;;;;;;;;;4984923;28;20511;-74
2022/02/04 13:49:14;;;;;;;13.13;6.45;;;;;;;;;;4985214;28;20055;-74
2022/02/04 13:52:02;;;;;;;19.63;6.05;;;;;;;;;;4994067;28;20046;-77
2022/02/04 14:02:49;;;;;;;13.27;7.30;;;;;;;;;;4914630;29;20099;-77
2022/02/04 14:05:41;;;;;;;18.48;8.55;;;;;;;;;;4879698;29;20037;-75
2022/02/04 14:08:10;;;;;;;17.65;7.35;;;;;;;;;;4883662;29;20085;-77
2022/02/04 14:10:58;;;;;;;19.67;8.32;;;;;;;;;;4868660;29;20056;-78
2022/02/04 14:13:28;;;;;;;24.23;13.32;;;;;;;;;;4872283;29;20049;-77
2022/02/04 14:15:59;;;;;;;23.75;11.57;;;;;;;;;;4868583;29;20062;-74
2022/02/04 14:18:25;;;;;;;22.88;11.65;;;;;;;;;;4869262;29;20071;-74
2022/02/04 14:20:51;;;;;;;21.42;10.25;;;;;;;;;;4867381;29;20037;-74
2022/02/04 14:23:18;;;;;;;30.55;11.95;;;;;;;;;;4865760;29;20030;-75
2022/02/04 14:25:48;;;;;;;20.63;9.70;;;;;;;;;;4865467;29;20030;-74
2022/02/04 14:28:18;;;;;;;29.60;10.48;;;;;;;;;;4862323;29;20053;-76
2022/02/04 14:30:45;;;;;;;21.25;9.05;;;;;;;;;;4877309;29;20065;-77
2022/02/04 14:33:23;;;;;;;26.80;9.25;;;;;;;;;;4883642;29;20518;-80
2022/02/04 14:36:00;;;;;;;21.90;9.90;;;;;;;;;;4904642;29;20042;-77
2022/02/04 15:00:59;;;;;;;17.80;7.88;;;;;;;;;;4977757;28;20038;-76
2022/02/04 15:03:29;;;;;;;;;;;;;;;;;;4980283;28;20436;-75
2022/02/04 15:06:10;;;;;;;18.13;10.00;;;;;;;;;;4978187;28;19963;-75
2022/02/04 15:08:37;;;;;;;18.05;7.07;;;;;;;;;;4976086;28;20026;-75
2022/02/04 15:11:11;;;;;;;19.25;10.98;;;;;;;;;;4976776;28;20022;-76
2022/02/04 15:13:38;;;;;;;37.97;22.25;;;;;;;;;;4975710;28;20027;-76
2022/02/04 15:16:07;;;;;;;30.05;14.48;;;;;;;;;;4972924;28;20033;-75
2022/02/04 15:18:34;;;;;;;22.48;12.20;;;;;;;;;;4970683;28;20149;-74
2022/02/04 15:21:01;;;;;;;33.53;13.48;;;;;;;;;;4975936;28;20027;-75
2022/02/04 15:23:33;;;;;;;31.00;13.40;;;;;;;;;;4968915;28;20106;-76
2022/02/04 15:25:59;;;;;;;35.88;16.23;;;;;;;;;;4975523;28;20027;-75
2022/02/04 15:30:55;;;;;;;61.40;34.67;;;;;;;;;;4975702;28;20085;-75
2022/02/04 15:33:21;;;;;;;49.58;26.15;;;;;;;;;;4975022;28;20026;-75
2022/02/04 15:35:47;;;;;;;48.10;26.10;;;;;;;;;;4977305;28;20069;-75
2022/02/04 15:38:13;;;;;;;48.83;25.75;;;;;;;;;;4975707;28;20062;-75
2022/02/04 15:40:43;;;;;;;46.72;23.40;;;;;;;;;;4975982;28;20027;-75
2022/02/04 15:43:10;;;;;;;41.60;22.58;;;;;;;;;;4975364;28;20030;-75
2022/02/04 15:48:40;;;;;;;36.53;19.55;;;;;;;;;;4976030;28;20055;-76
2022/02/04 15:59:56;;;;;;;38.25;16.98;;;;;;;;;;4875924;29;20459;-78
2022/02/04 16:05:14;;;;;;;43.55;18.75;;;;;;;;;;4845584;29;20033;-75
2022/02/04 16:07:44;;;;;;;32.28;14.75;;;;;;;;;;4846746;29;20053;-75
2022/02/04 16:10:33;;;;;;;30.15;15.43;;;;;;;;;;4848916;29;20049;-75
2022/02/04 16:13:24;;;;;;;64.88;31.30;;;;;;;;;;4846382;29;20117;-75
2022/02/04 16:15:56;;;;;;;132.98;50.50;;;;;;;;;;4845774;29;20058;-76
2022/02/04 16:18:44;;;;;;;80.50;39.00;;;;;;;;;;4811064;29;20035;-73
2022/02/04 16:21:23;;;;;;;90.07;43.13;;;;;;;;;;4818136;29;20153;-77
2022/02/04 16:29:39;;;;;;;82.85;37.78;;;;;;;;;;4837222;29;20037;-81
2022/02/04 16:32:26;;;;;;;68.47;33.42;;;;;;;;;;4854902;29;20035;-77
2022/02/04 16:34:57;;;;;;;76.07;36.97;;;;;;;;;;4851223;29;20062;-79
2022/02/04 16:38:01;;;;;;;95.13;41.67;;;;;;;;;;4858871;29;20038;-79
2022/02/04 16:40:31;;;;;;;102.95;45.85;;;;;;;;;;4877148;29;20044;-76
2022/02/04 16:42:59;;;;;;;118.72;47.85;;;;;;;;;;4918669;29;20038;-76
2022/02/04 16:45:25;;;;;;;152.75;62.90;;;;;;;;;;4917616;29;20422;-77
2022/02/04 16:47:52;;;;;;;137.43;62.85;;;;;;;;;;4927711;29;20056;-77
2022/02/04 16:50:23;;;;;;;141.43;64.53;;;;;;;;;;4960523;28;20039;-76
2022/02/04 16:52:52;;;;;;;124.50;55.80;;;;;;;;;;4975586;28;20093;-77
2022/02/04 16:55:18;;;;;;;117.47;56.45;;;;;;;;;;4982550;28;20150;-76
2022/02/04 16:57:47;;;;;;;108.07;53.30;;;;;;;;;;4973880;28;20033;-76
2022/02/04 17:00:21;;;;;;;190.40;91.97;;;;;;;;;;4972564;28;20078;-77
2022/02/04 17:02:52;;;;;;;219.63;107.53;;;;;;;;;;4974489;28;20364;-76
2022/02/04 17:05:22;;;;;;;169.57;87.30;;;;;;;;;;4975669;28;20102;-77
2022/02/04 17:07:55;;;;;;;151.82;84.35;;;;;;;;;;4994543;28;20057;-78
2022/02/04 17:10:28;;;;;;;134.45;67.45;;;;;;;;;;4987138;28;20023;-75
2022/02/04 17:13:01;;;;;;;92.10;48.30;;;;;;;;;;4979355;28;20049;-76
2022/02/04 17:15:31;;;;;;;79.10;44.10;;;;;;;;;;4984768;28;20019;-78
2022/02/04 17:17:59;;;;;;;73.68;37.30;;;;;;;;;;4972531;28;20059;-78
2022/02/04 17:20:27;;;;;;;57.15;32.63;;;;;;;;;;4976603;28;20369;-77
2022/02/04 17:22:53;;;;;;;62.50;30.77;;;;;;;;;;4962196;28;20060;-78
2022/02/04 17:25:30;;;;;;;61.67;30.20;;;;;;;;;;4973980;28;20011;-73
2022/02/04 17:27:58;;;;;;;50.08;27.20;;;;;;;;;;4964156;28;20457;-75
2022/02/04 17:30:25;;;;;;;62.95;33.42;;;;;;;;;;4997723;28;20019;-74
2022/02/04 17:32:51;;;;;;;66.57;34.00;;;;;;;;;;4978222;28;20577;-75
2022/02/04 17:35:38;;;;;;;56.58;30.25;;;;;;;;;;4945183;29;20040;-75
2022/02/04 17:38:08;;;;;;;38.13;19.15;;;;;;;;;;4939651;28;20044;-74
2022/02/04 17:40:34;;;;;;;32.75;18.75;;;;;;;;;;4972178;28;20053;-75
2022/02/04 17:43:02;;;;;;;37.40;20.38;;;;;;;;;;4935582;29;20028;-77
2022/02/04 17:45:29;;;;;;;31.95;18.95;;;;;;;;;;4940307;28;20087;-73
2022/02/04 17:48:20;;;;;;;29.38;15.95;;;;;;;;;;4945282;28;20059;-76
2022/02/04 17:50:56;;;;;;;29.27;16.35;;;;;;;;;;4936309;29;20043;-76
2022/02/04 17:53:29;;;;;;;29.55;16.27;;;;;;;;;;4942480;29;20027;-75
2022/02/04 17:56:06;;;;;;;33.40;15.20;;;;;;;;;;4938637;28;20036;-77
2022/02/04 17:59:03;;;;;;;24.13;13.82;;;;;;;;;;4958301;29;20038;-76
2022/02/04 18:01:53;;;;;;;24.60;14.10;;;;;;;;;;4938373;28;20518;-79
2022/02/04 18:09:34;;;;;;;22.17;13.00;;;;;;;;;;4955104;28;20480;-75
2022/02/04 18:12:03;;;;;;;24.15;13.05;;;;;;;;;;4956212;28;20024;-75
2022/02/04 18:14:29;;;;;;;20.63;11.77;;;;;;;;;;4956521;28;20091;-77
2022/02/04 18:16:55;;;;;;;21.90;12.13;;;;;;;;;;4956060;29;20462;-77
2022/02/04 18:19:21;;;;;;;25.73;12.95;;;;;;;;;;4958125;29;20052;-76
2022/02/04 18:21:47;;;;;;;31.63;14.15;;;;;;;;;;4944955;28;20039;-77
2022/02/04 18:24:36;;;;;;;25.08;13.02;;;;;;;;;;4892592;29;20231;-77
2022/02/04 18:27:02;;;;;;;24.80;12.13;;;;;;;;;;4905647;29;20037;-76
2022/02/04 18:29:28;;;;;;;42.50;20.75;;;;;;;;;;4895592;29;20077;-76
2022/02/04 18:31:54;;;;;;;46.63;21.45;;;;;;;;;;4928981;29;20028;-76
2022/02/04 18:34:20;;;;;;;44.22;19.83;;;;;;;;;;4918551;29;20136;-74
2022/02/04 18:36:48;;;;;;;51.10;22.02;;;;;;;;;;4923116;29;20534;-78
2022/02/04 18:42:45;;;;;;;27.42;15.40;;;;;;;;;;4915395;29;20649;-77
2022/02/04 18:45:21;;;;;;;31.25;16.25;;;;;;;;;;4892765;29;20076;-74
2022/02/04 18:50:28;;;;;;;27.65;14.18;;;;;;;;;;4899579;29;20036;-76
2022/02/04 18:53:09;;;;;;;26.70;14.00;;;;;;;;;;4879800;29;20555;-75
2022/02/04 18:58:26;;;;;;;24.05;14.75;;;;;;;;;;4927006;29;20124;-77
2022/02/04 19:01:15;;;;;;;32.65;18.58;;;;;;;;;;4891465;29;20487;-75
2022/02/04 19:03:48;;;;;;;35.40;22.38;;;;;;;;;;4884126;29;20084;-75
2022/02/04 19:06:26;;;;;;;52.88;30.38;;;;;;;;;;4888356;29;20037;-73
2022/02/04 19:08:56;;;;;;;85.50;47.75;;;;;;;;;;4885414;29;20158;-75
2022/02/04 19:11:31;;;;;;;73.60;42.95;;;;;;;;;;4886543;29;20033;-78
2022/02/04 19:14:02;;;;;;;56.85;31.42;;;;;;;;;;4891407;29;20116;-76
2022/02/04 19:16:38;;;;;;;38.08;22.70;;;;;;;;;;4880730;29;20074;-77
2022/02/04 19:22:02;;;;;;;36.97;19.90;;;;;;;;;;4926496;29;20039;-77
2022/02/04 19:24:33;;;;;;;33.85;18.15;;;;;;;;;;4901205;29;20486;-76
2022/02/04 19:26:59;;;;;;;41.88;21.27;;;;;;;;;;4916764;29;20060;-77
2022/02/04 19:29:26;;;;;;;40.20;21.90;;;;;;;;;;4927374;29;20032;-76
2022/02/04 19:31:55;;;;;;;43.20;22.88;;;;;;;;;;4949871;28;20041;-76
2022/02/04 19:34:24;;;;;;;44.35;22.75;;;;;;;;;;4974332;28;20030;-76
2022/02/04 19:36:50;;;;;;;40.67;20.38;;;;;;;;;;4976263;28;20018;-76
2022/02/04 19:39:16;;;;;;;43.53;20.38;;;;;;;;;;4976453;28;20477;-76
2022/02/04 19:41:48;;;;;;;51.63;24.17;;;;;;;;;;4975308;28;20031;-76
2022/02/04 19:44:14;;;;;;;55.35;25.70;;;;;;;;;;4974366;28;20031;-76
2022/02/04 19:46:41;;;;;;;57.53;25.77;;;;;;;;;;4976190;28;20042;-76
2022/02/04 19:49:18;;;;;;;47.38;23.83;;;;;;;;;;4976182;28;20473;-76
2022/02/04 19:51:53;;;;;;;36.88;19.70;;;;;;;;;;4957655;28;20047;-77
2022/02/04 20:26:57;;;;;;;16.00;8.30;;;;;;;;;;4975597;28;20076;-76
2022/02/04 20:29:24;;;;;;;14.43;8.60;;;;;;;;;;4975463;28;20030;-76
2022/02/04 20:31:50;;;;;;;15.52;9.23;;;;;;;;;;4975095;28;20058;-76
2022/02/04 20:34:16;;;;;;;18.55;9.13;;;;;;;;;;4974670;28;20038;-76
2022/02/04 20:36:42;;;;;;;16.35;8.98;;;;;;;;;;4974992;28;20081;-76
2022/02/04 20:39:10;;;;;;;15.65;8.18;;;;;;;;;;4975500;28;20031;-76
2022/02/04 20:41:36;;;;;;;12.75;7.70;;;;;;;;;;4974830;28;20077;-76
2022/02/04 20:44:03;;;;;;;15.07;8.07;;;;;;;;;;4974832;28;20055;-76
2022/02/04 20:46:30;;;;;;;12.35;7.18;;;;;;;;;;4974809;28;20125;-76
2022/02/04 20:49:04;;;;;;;14.23;8.57;;;;;;;;;;4979486;28;20027;-77
2022/02/04 20:51:30;;;;;;;13.57;7.68;;;;;;;;;;4979028;28;20106;-76
2022/02/04 20:53:56;;;;;;;12.82;7.70;;;;;;;;;;4977893;28;20031;-78
2022/02/04 20:56:22;;;;;;;13.30;7.32;;;;;;;;;;4984664;28;20046;-76
2022/02/04 20:58:48;;;;;;;15.10;7.68;;;;;;;;;;4985680;28;20045;-78
2022/02/04 21:01:15;;;;;;;15.82;7.80;;;;;;;;;;4983067;28;20037;-76
2022/02/04 21:03:42;;;;;;;10.02;6.22;;;;;;;;;;4979239;28;20030;-76
2022/02/04 21:06:18;;;;;;;14.90;6.97;;;;;;;;;;4962130;28;20401;-76
2022/02/04 21:17:03;;;;;;;15.20;7.45;;;;;;;;;;4921343;29;20103;-76
2022/02/04 21:19:29;;;;;;;10.90;6.68;;;;;;;;;;4919736;29;20055;-76
2022/02/04 21:21:55;;;;;;;12.38;7.55;;;;;;;;;;4920184;29;20033;-76
2022/02/04 21:24:21;;;;;;;11.48;7.78;;;;;;;;;;4918041;29;20389;-77
2022/02/04 21:26:52;;;;;;;12.77;7.60;;;;;;;;;;4920220;29;20020;-76
2022/02/04 21:29:18;;;;;;;13.40;7.15;;;;;;;;;;4917425;29;20028;-77
2022/02/04 21:31:47;;;;;;;14.73;7.55;;;;;;;;;;4904805;29;20187;-77
2022/02/04 21:37:04;;;;;;;13.90;7.03;;;;;;;;;;4939136;29;20031;-76
2022/02/04 21:39:42;;;;;;;13.38;7.20;;;;;;;;;;4941965;29;20043;-76
2022/02/04 21:42:10;;;;;;;11.95;7.03;;;;;;;;;;4930126;29;20162;-76
2022/02/04 21:44:41;;;;;;;16.48;8.02;;;;;;;;;;4912041;29;20064;-77
2022/02/04 21:47:16;;;;;;;17.17;8.07;;;;;;;;;;4941210;29;20054;-78
2022/02/04 21:49:47;;;;;;;19.63;8.82;;;;;;;;;;4964595;29;20023;-76
2022/02/04 21:52:13;;;;;;;18.23;9.98;;;;;;;;;;4971198;28;20041;-76
2022/02/04 21:54:39;;;;;;;17.23;9.27;;;;;;;;;;4966247;28;20547;-76
2022/02/04 21:57:06;;;;;;;25.58;12.25;;;;;;;;;;4981203;28;20034;-76
2022/02/04 21:59:32;;;;;;;22.52;11.57;;;;;;;;;;4952047;29;20054;-77
2022/02/04 22:01:58;;;;;;;20.92;11.60;;;;;;;;;;4962280;28;20042;-76
2022/02/04 22:04:24;;;;;;;20.27;9.35;;;;;;;;;;4962307;28;20370;-76
2022/02/04 22:06:53;;;;;;;16.20;8.77;;;;;;;;;;4962270;29;20023;-76
2022/02/04 22:12:23;;;;;;;18.02;8.02;;;;;;;;;;4974721;28;20023;-76
2022/02/04 22:22:36;;;;;;;18.67;8.98;;;;;;;;;;4964462;29;20087;-77
2022/02/04 22:25:02;;;;;;;19.42;7.80;;;;;;;;;;4965177;29;20376;-76
2022/02/04 22:27:30;;;;;;;16.17;7.10;;;;;;;;;;4964444;28;20043;-77
2022/02/04 22:30:03;;;;;;;17.15;7.22;;;;;;;;;;4927790;29;20537;-76